sensor_id;sensor_type;location;lat;lon;timestamp;temperature;humidity
45843;DHT22;31563;51.744;8.252;2023-10-31T00:01:53;20.90;67.20
45843;DHT22;31563;51.744;8.252;2023-10-31T00:04:22;21.00;67.30
45843;DHT22;31563;51.744;8.252;2023-10-31T00:06:50;20.90;67.30
45843;DHT22;31563;51.744;8.252;2023-10-31T00:09:18;20.90;67.30
45843;DHT22;31563;51.744;8.252;2023-10-31T00:11:46;20.90;67.30
45843;DHT22;31563;51.744;8.252;2023-10-31T00:14:15;20.90;67.40
45843;DHT22;31563;51.744;8.252;2023-10-31T00:16:57;20.90;67.30
45843;DHT22;31563;51.744;8.252;2023-10-31T00:19:25;20.90;67.30
45843;DHT22;31563;51.744;8.252;2023-10-31T00:21:53;20.90;67.20
45843;DHT22;31563;51.744;8.252;2023-10-31T00:24:21;20.90;67.20
45843;DHT22;31563;51.744;8.252;2023-10-31T00:26:49;20.90;67.10
45843;DHT22;31563;51.744;8.252;2023-10-31T00:29:18;20.90;67.20
45843;DHT22;31563;51.744;8.252;2023-10-31T00:31:46;20.90;67.20
45843;DHT22;31563;51.744;8.252;2023-10-31T00:34:14;20.90;67.10
45843;DHT22;31563;51.744;8.252;2023-10-31T00:36:42;20.90;67.20
45843;DHT22;31563;51.744;8.252;2023-10-31T00:39:10;20.80;67.20
45843;DHT22;31563;51.744;8.252;2023-10-31T00:41:43;20.80;67.20
45843;DHT22;31563;51.744;8.252;2023-10-31T00:44:11;20.80;67.30
45843;DHT22;31563;51.744;8.252;2023-10-31T00:46:40;20.80;67.30
45843;DHT22;31563;51.744;8.252;2023-10-31T00:49:08;20.80;67.30
45843;DHT22;31563;51.744;8.252;2023-10-31T00:51:36;20.70;67.20
45843;DHT22;31563;51.744;8.252;2023-10-31T00:54:04;20.70;67.30
45843;DHT22;31563;51.744;8.252;2023-10-31T00:56:32;20.70;67.40
45843;DHT22;31563;51.744;8.252;2023-10-31T00:59:01;20.70;67.40
45843;DHT22;31563;51.744;8.252;2023-10-31T01:01:29;20.70;67.50
45843;DHT22;31563;51.744;8.252;2023-10-31T01:03:58;20.70;67.60
45843;DHT22;31563;51.744;8.252;2023-10-31T01:06:26;20.60;67.50
45843;DHT22;31563;51.744;8.252;2023-10-31T01:08:54;20.60;67.50
45843;DHT22;31563;51.744;8.252;2023-10-31T01:11:22;20.60;67.60
45843;DHT22;31563;51.744;8.252;2023-10-31T01:13:50;20.50;67.60
45843;DHT22;31563;51.744;8.252;2023-10-31T01:16:18;20.50;67.50
45843;DHT22;31563;51.744;8.252;2023-10-31T01:18:46;20.50;67.50
45843;DHT22;31563;51.744;8.252;2023-10-31T01:21:15;20.50;67.30
45843;DHT22;31563;51.744;8.252;2023-10-31T01:23:43;20.50;67.40
45843;DHT22;31563;51.744;8.252;2023-10-31T01:26:11;20.50;67.50
45843;DHT22;31563;51.744;8.252;2023-10-31T01:28:39;20.50;67.30
45843;DHT22;31563;51.744;8.252;2023-10-31T01:31:07;20.50;67.10
45843;DHT22;31563;51.744;8.252;2023-10-31T01:33:35;20.60;67.20
45843;DHT22;31563;51.744;8.252;2023-10-31T01:36:04;20.60;67.00
45843;DHT22;31563;51.744;8.252;2023-10-31T01:38:33;20.50;67.00
45843;DHT22;31563;51.744;8.252;2023-10-31T01:41:01;20.50;66.90
45843;DHT22;31563;51.744;8.252;2023-10-31T01:43:30;20.50;66.80
45843;DHT22;31563;51.744;8.252;2023-10-31T01:45:58;20.50;66.70
45843;DHT22;31563;51.744;8.252;2023-10-31T01:48:29;20.40;66.80
45843;DHT22;31563;51.744;8.252;2023-10-31T01:50:58;20.40;66.50
45843;DHT22;31563;51.744;8.252;2023-10-31T01:53:27;20.30;66.50
45843;DHT22;31563;51.744;8.252;2023-10-31T01:55:58;20.30;65.90
45843;DHT22;31563;51.744;8.252;2023-10-31T01:58:30;20.30;66.70
45843;DHT22;31563;51.744;8.252;2023-10-31T02:00:59;20.30;66.90
45843;DHT22;31563;51.744;8.252;2023-10-31T02:03:28;20.30;65.90
45843;DHT22;31563;51.744;8.252;2023-10-31T02:05:57;20.40;66.20
45843;DHT22;31563;51.744;8.252;2023-10-31T02:08:25;20.40;66.20
45843;DHT22;31563;51.744;8.252;2023-10-31T02:10:53;20.30;65.70
45843;DHT22;31563;51.744;8.252;2023-10-31T02:13:22;20.30;66.10
45843;DHT22;31563;51.744;8.252;2023-10-31T02:15:50;20.30;66.30
45843;DHT22;31563;51.744;8.252;2023-10-31T02:18:18;20.30;65.80
45843;DHT22;31563;51.744;8.252;2023-10-31T02:20:47;20.30;65.80
45843;DHT22;31563;51.744;8.252;2023-10-31T02:23:17;20.30;65.80
45843;DHT22;31563;51.744;8.252;2023-10-31T02:25:45;20.20;65.70
45843;DHT22;31563;51.744;8.252;2023-10-31T02:28:13;20.20;65.80
45843;DHT22;31563;51.744;8.252;2023-10-31T02:30:41;20.20;65.90
45843;DHT22;31563;51.744;8.252;2023-10-31T02:33:09;20.10;65.50
45843;DHT22;31563;51.744;8.252;2023-10-31T02:35:37;20.10;65.30
45843;DHT22;31563;51.744;8.252;2023-10-31T02:38:04;20.10;65.60
45843;DHT22;31563;51.744;8.252;2023-10-31T02:40:34;20.00;65.50
45843;DHT22;31563;51.744;8.252;2023-10-31T02:43:02;20.00;65.50
45843;DHT22;31563;51.744;8.252;2023-10-31T02:45:30;20.00;65.60
45843;DHT22;31563;51.744;8.252;2023-10-31T02:47:58;20.00;65.10
45843;DHT22;31563;51.744;8.252;2023-10-31T02:50:26;19.90;65.40
45843;DHT22;31563;51.744;8.252;2023-10-31T02:52:53;19.90;65.40
45843;DHT22;31563;51.744;8.252;2023-10-31T02:55:21;19.90;65.20
45843;DHT22;31563;51.744;8.252;2023-10-31T02:57:51;19.90;65.80
45843;DHT22;31563;51.744;8.252;2023-10-31T03:00:19;20.00;65.50
45843;DHT22;31563;51.744;8.252;2023-10-31T03:02:47;20.00;65.30
45843;DHT22;31563;51.744;8.252;2023-10-31T03:05:15;20.00;64.90
45843;DHT22;31563;51.744;8.252;2023-10-31T03:07:43;20.00;64.60
45843;DHT22;31563;51.744;8.252;2023-10-31T03:10:12;20.00;64.80
45843;DHT22;31563;51.744;8.252;2023-10-31T03:12:40;20.00;64.60
45843;DHT22;31563;51.744;8.252;2023-10-31T03:15:10;19.90;64.40
45843;DHT22;31563;51.744;8.252;2023-10-31T03:17:38;19.80;64.40
45843;DHT22;31563;51.744;8.252;2023-10-31T03:20:07;19.90;64.60
45843;DHT22;31563;51.744;8.252;2023-10-31T03:22:35;19.80;64.70
45843;DHT22;31563;51.744;8.252;2023-10-31T03:25:04;19.80;64.70
45843;DHT22;31563;51.744;8.252;2023-10-31T03:27:32;19.90;64.90
45843;DHT22;31563;51.744;8.252;2023-10-31T03:30:00;19.90;64.80
45843;DHT22;31563;51.744;8.252;2023-10-31T03:32:29;19.90;64.70
45843;DHT22;31563;51.744;8.252;2023-10-31T03:34:57;19.90;64.70
45843;DHT22;31563;51.744;8.252;2023-10-31T03:37:25;19.90;64.40
45843;DHT22;31563;51.744;8.252;2023-10-31T03:39:53;19.90;64.40
45843;DHT22;31563;51.744;8.252;2023-10-31T03:42:21;19.80;64.20
45843;DHT22;31563;51.744;8.252;2023-10-31T03:44:49;19.80;64.50
45843;DHT22;31563;51.744;8.252;2023-10-31T03:47:17;19.80;64.20
45843;DHT22;31563;51.744;8.252;2023-10-31T03:49:46;19.80;64.40
45843;DHT22;31563;51.744;8.252;2023-10-31T03:52:14;19.70;64.40
45843;DHT22;31563;51.744;8.252;2023-10-31T03:54:42;19.70;64.40
45843;DHT22;31563;51.744;8.252;2023-10-31T03:57:10;19.70;64.20
45843;DHT22;31563;51.744;8.252;2023-10-31T03:59:38;19.70;64.60
45843;DHT22;31563;51.744;8.252;2023-10-31T04:02:06;19.70;64.50
45843;DHT22;31563;51.744;8.252;2023-10-31T04:04:34;19.60;64.40
45843;DHT22;31563;51.744;8.252;2023-10-31T04:07:03;19.60;64.40
45843;DHT22;31563;51.744;8.252;2023-10-31T04:09:31;19.60;64.40
45843;DHT22;31563;51.744;8.252;2023-10-31T04:11:59;19.50;64.50
45843;DHT22;31563;51.744;8.252;2023-10-31T04:14:27;19.60;64.50
45843;DHT22;31563;51.744;8.252;2023-10-31T04:16:55;19.50;64.50
45843;DHT22;31563;51.744;8.252;2023-10-31T04:19:23;19.50;64.50
45843;DHT22;31563;51.744;8.252;2023-10-31T04:21:52;19.60;64.80
45843;DHT22;31563;51.744;8.252;2023-10-31T04:24:22;19.60;64.70
45843;DHT22;31563;51.744;8.252;2023-10-31T04:26:50;19.60;64.60
45843;DHT22;31563;51.744;8.252;2023-10-31T04:29:18;19.60;64.40
45843;DHT22;31563;51.744;8.252;2023-10-31T04:31:45;19.60;64.50
45843;DHT22;31563;51.744;8.252;2023-10-31T04:34:14;19.60;64.30
45843;DHT22;31563;51.744;8.252;2023-10-31T04:36:41;19.60;64.30
45843;DHT22;31563;51.744;8.252;2023-10-31T04:39:10;19.60;64.40
45843;DHT22;31563;51.744;8.252;2023-10-31T04:41:39;19.50;64.20
45843;DHT22;31563;51.744;8.252;2023-10-31T04:44:07;19.50;64.30
45843;DHT22;31563;51.744;8.252;2023-10-31T04:46:35;19.60;64.50
45843;DHT22;31563;51.744;8.252;2023-10-31T04:49:03;19.50;64.50
45843;DHT22;31563;51.744;8.252;2023-10-31T04:51:33;19.60;64.40
45843;DHT22;31563;51.744;8.252;2023-10-31T04:54:01;19.60;64.30
45843;DHT22;31563;51.744;8.252;2023-10-31T04:56:29;19.70;64.20
45843;DHT22;31563;51.744;8.252;2023-10-31T04:58:59;19.70;64.10
45843;DHT22;31563;51.744;8.252;2023-10-31T05:01:27;19.80;64.00
45843;DHT22;31563;51.744;8.252;2023-10-31T05:03:55;19.90;63.80
45843;DHT22;31563;51.744;8.252;2023-10-31T05:06:36;20.00;63.60
45843;DHT22;31563;51.744;8.252;2023-10-31T05:09:04;20.00;63.30
45843;DHT22;31563;51.744;8.252;2023-10-31T05:11:33;20.10;63.30
45843;DHT22;31563;51.744;8.252;2023-10-31T05:14:02;20.10;63.10
45843;DHT22;31563;51.744;8.252;2023-10-31T05:16:30;20.10;63.10
45843;DHT22;31563;51.744;8.252;2023-10-31T05:18:58;20.20;63.00
45843;DHT22;31563;51.744;8.252;2023-10-31T05:21:31;20.20;63.10
45843;DHT22;31563;51.744;8.252;2023-10-31T05:23:59;20.30;63.30
45843;DHT22;31563;51.744;8.252;2023-10-31T05:26:27;20.30;63.30
45843;DHT22;31563;51.744;8.252;2023-10-31T05:28:56;20.30;63.30
45843;DHT22;31563;51.744;8.252;2023-10-31T05:31:26;20.20;63.20
45843;DHT22;31563;51.744;8.252;2023-10-31T05:33:54;20.30;63.50
45843;DHT22;31563;51.744;8.252;2023-10-31T05:36:23;20.40;65.30
45843;DHT22;31563;51.744;8.252;2023-10-31T05:38:52;20.50;66.80
45843;DHT22;31563;51.744;8.252;2023-10-31T05:41:19;20.50;65.90
45843;DHT22;31563;51.744;8.252;2023-10-31T05:43:48;20.40;66.10
45843;DHT22;31563;51.744;8.252;2023-10-31T05:46:16;20.40;66.20
45843;DHT22;31563;51.744;8.252;2023-10-31T05:48:46;20.40;66.40
45843;DHT22;31563;51.744;8.252;2023-10-31T05:51:16;20.40;66.20
45843;DHT22;31563;51.744;8.252;2023-10-31T05:53:46;20.30;66.20
45843;DHT22;31563;51.744;8.252;2023-10-31T05:56:15;20.30;66.00
45843;DHT22;31563;51.744;8.252;2023-10-31T05:58:43;20.40;66.20
45843;DHT22;31563;51.744;8.252;2023-10-31T06:01:11;20.30;66.10
45843;DHT22;31563;51.744;8.252;2023-10-31T06:03:41;20.30;66.00
45843;DHT22;31563;51.744;8.252;2023-10-31T06:06:11;20.30;66.00
45843;DHT22;31563;51.744;8.252;2023-10-31T06:08:40;20.30;65.90
45843;DHT22;31563;51.744;8.252;2023-10-31T06:11:08;20.30;65.70
45843;DHT22;31563;51.744;8.252;2023-10-31T06:13:39;20.40;65.60
45843;DHT22;31563;51.744;8.252;2023-10-31T06:16:07;20.40;66.60
45843;DHT22;31563;51.744;8.252;2023-10-31T06:18:37;20.50;67.20
45843;DHT22;31563;51.744;8.252;2023-10-31T06:21:05;20.50;67.10
45843;DHT22;31563;51.744;8.252;2023-10-31T06:23:36;20.50;67.00
45843;DHT22;31563;51.744;8.252;2023-10-31T06:26:04;20.50;66.90
45843;DHT22;31563;51.744;8.252;2023-10-31T06:28:33;20.60;66.80
45843;DHT22;31563;51.744;8.252;2023-10-31T06:31:11;20.40;63.90
45843;DHT22;31563;51.744;8.252;2023-10-31T06:33:39;20.20;65.10
45843;DHT22;31563;51.744;8.252;2023-10-31T06:36:07;20.10;63.50
45843;DHT22;31563;51.744;8.252;2023-10-31T06:38:37;19.90;63.00
45843;DHT22;31563;51.744;8.252;2023-10-31T06:41:05;19.40;62.50
45843;DHT22;31563;51.744;8.252;2023-10-31T06:43:33;19.30;63.00
45843;DHT22;31563;51.744;8.252;2023-10-31T06:46:02;19.20;63.00
45843;DHT22;31563;51.744;8.252;2023-10-31T06:48:31;19.00;63.20
45843;DHT22;31563;51.744;8.252;2023-10-31T06:50:59;19.00;63.80
45843;DHT22;31563;51.744;8.252;2023-10-31T06:53:27;18.70;63.80
45843;DHT22;31563;51.744;8.252;2023-10-31T06:55:56;18.50;64.10
45843;DHT22;31563;51.744;8.252;2023-10-31T06:58:24;18.50;64.30
45843;DHT22;31563;51.744;8.252;2023-10-31T07:00:52;18.50;64.50
45843;DHT22;31563;51.744;8.252;2023-10-31T07:03:21;18.70;64.20
45843;DHT22;31563;51.744;8.252;2023-10-31T07:05:49;18.80;63.90
45843;DHT22;31563;51.744;8.252;2023-10-31T07:08:18;18.80;63.60
45843;DHT22;31563;51.744;8.252;2023-10-31T07:10:46;18.70;64.00
45843;DHT22;31563;51.744;8.252;2023-10-31T07:13:15;18.70;63.80
45843;DHT22;31563;51.744;8.252;2023-10-31T07:15:43;18.70;64.20
45843;DHT22;31563;51.744;8.252;2023-10-31T07:18:12;18.60;64.30
45843;DHT22;31563;51.744;8.252;2023-10-31T07:20:40;18.70;64.40
45843;DHT22;31563;51.744;8.252;2023-10-31T07:23:08;18.70;64.60
45843;DHT22;31563;51.744;8.252;2023-10-31T07:25:36;18.60;64.20
45843;DHT22;31563;51.744;8.252;2023-10-31T07:28:04;18.60;64.30
45843;DHT22;31563;51.744;8.252;2023-10-31T07:30:33;18.40;64.90
45843;DHT22;31563;51.744;8.252;2023-10-31T07:33:01;18.50;65.10
45843;DHT22;31563;51.744;8.252;2023-10-31T07:35:29;18.50;64.90
45843;DHT22;31563;51.744;8.252;2023-10-31T07:37:58;18.60;65.20
45843;DHT22;31563;51.744;8.252;2023-10-31T07:40:26;18.70;64.90
45843;DHT22;31563;51.744;8.252;2023-10-31T07:42:55;18.90;64.70
45843;DHT22;31563;51.744;8.252;2023-10-31T07:45:22;19.10;64.30
45843;DHT22;31563;51.744;8.252;2023-10-31T07:47:52;19.40;63.70
45843;DHT22;31563;51.744;8.252;2023-10-31T07:50:20;19.80;62.70
45843;DHT22;31563;51.744;8.252;2023-10-31T07:52:49;20.20;61.60
45843;DHT22;31563;51.744;8.252;2023-10-31T07:55:17;20.30;61.80
45843;DHT22;31563;51.744;8.252;2023-10-31T07:57:45;20.40;61.00
45843;DHT22;31563;51.744;8.252;2023-10-31T08:00:13;20.40;61.40
45843;DHT22;31563;51.744;8.252;2023-10-31T08:02:41;20.60;61.70
45843;DHT22;31563;51.744;8.252;2023-10-31T08:05:11;20.80;62.30
45843;DHT22;31563;51.744;8.252;2023-10-31T08:07:39;21.00;61.50
45843;DHT22;31563;51.744;8.252;2023-10-31T08:10:07;21.10;61.10
45843;DHT22;31563;51.744;8.252;2023-10-31T08:12:35;21.20;61.10
45843;DHT22;31563;51.744;8.252;2023-10-31T08:15:04;21.30;61.10
45843;DHT22;31563;51.744;8.252;2023-10-31T08:17:32;21.30;61.00
45843;DHT22;31563;51.744;8.252;2023-10-31T08:20:00;21.50;61.10
45843;DHT22;31563;51.744;8.252;2023-10-31T08:22:31;21.50;60.90
45843;DHT22;31563;51.744;8.252;2023-10-31T08:24:59;21.50;60.60
45843;DHT22;31563;51.744;8.252;2023-10-31T08:27:27;21.60;61.00
45843;DHT22;31563;51.744;8.252;2023-10-31T08:29:55;21.60;60.80
45843;DHT22;31563;51.744;8.252;2023-10-31T08:32:23;21.80;60.40
45843;DHT22;31563;51.744;8.252;2023-10-31T08:34:51;21.80;60.20
45843;DHT22;31563;51.744;8.252;2023-10-31T08:37:20;21.80;60.30
45843;DHT22;31563;51.744;8.252;2023-10-31T08:39:49;21.70;60.50
45843;DHT22;31563;51.744;8.252;2023-10-31T08:42:17;21.50;60.70
45843;DHT22;31563;51.744;8.252;2023-10-31T08:44:45;21.40;60.90
45843;DHT22;31563;51.744;8.252;2023-10-31T08:47:13;21.40;61.10
45843;DHT22;31563;51.744;8.252;2023-10-31T08:49:41;21.30;61.30
45843;DHT22;31563;51.744;8.252;2023-10-31T08:52:09;21.30;61.30
45843;DHT22;31563;51.744;8.252;2023-10-31T08:54:37;21.40;61.30
45843;DHT22;31563;51.744;8.252;2023-10-31T08:57:06;21.60;61.10
45843;DHT22;31563;51.744;8.252;2023-10-31T08:59:34;21.50;60.90
45843;DHT22;31563;51.744;8.252;2023-10-31T09:02:02;21.40;61.10
45843;DHT22;31563;51.744;8.252;2023-10-31T09:04:30;21.40;61.30
45843;DHT22;31563;51.744;8.252;2023-10-31T09:06:58;21.40;61.30
45843;DHT22;31563;51.744;8.252;2023-10-31T09:09:26;21.70;60.90
45843;DHT22;31563;51.744;8.252;2023-10-31T09:11:54;21.90;60.40
45843;DHT22;31563;51.744;8.252;2023-10-31T09:14:23;22.00;60.10
45843;DHT22;31563;51.744;8.252;2023-10-31T09:16:51;21.90;60.20
45843;DHT22;31563;51.744;8.252;2023-10-31T09:19:19;22.00;60.40
45843;DHT22;31563;51.744;8.252;2023-10-31T09:21:47;22.10;60.10
45843;DHT22;31563;51.744;8.252;2023-10-31T09:24:15;22.40;59.30
45843;DHT22;31563;51.744;8.252;2023-10-31T09:26:44;22.70;58.80
45843;DHT22;31563;51.744;8.252;2023-10-31T09:29:12;23.10;58.20
45843;DHT22;31563;51.744;8.252;2023-10-31T09:31:56;23.60;56.80
45843;DHT22;31563;51.744;8.252;2023-10-31T09:34:25;23.60;55.70
45843;DHT22;31563;51.744;8.252;2023-10-31T09:36:53;23.30;56.40
45843;DHT22;31563;51.744;8.252;2023-10-31T09:39:22;23.20;57.00
45843;DHT22;31563;51.744;8.252;2023-10-31T09:41:50;23.10;57.10
45843;DHT22;31563;51.744;8.252;2023-10-31T09:44:20;22.80;57.30
45843;DHT22;31563;51.744;8.252;2023-10-31T09:46:50;22.60;58.20
45843;DHT22;31563;51.744;8.252;2023-10-31T09:49:20;22.30;58.60
45843;DHT22;31563;51.744;8.252;2023-10-31T09:51:49;22.20;59.10
45843;DHT22;31563;51.744;8.252;2023-10-31T09:54:17;22.10;59.40
45843;DHT22;31563;51.744;8.252;2023-10-31T09:56:45;22.10;59.10
45843;DHT22;31563;51.744;8.252;2023-10-31T09:59:14;22.00;59.20
45843;DHT22;31563;51.744;8.252;2023-10-31T10:01:43;21.90;59.80
45843;DHT22;31563;51.744;8.252;2023-10-31T10:04:11;21.80;59.60
45843;DHT22;31563;51.744;8.252;2023-10-31T10:06:51;21.80;59.80
45843;DHT22;31563;51.744;8.252;2023-10-31T10:09:21;21.70;60.10
45843;DHT22;31563;51.744;8.252;2023-10-31T10:11:49;21.70;60.30
45843;DHT22;31563;51.744;8.252;2023-10-31T10:14:17;21.70;60.30
45843;DHT22;31563;51.744;8.252;2023-10-31T10:16:45;21.80;60.20
45843;DHT22;31563;51.744;8.252;2023-10-31T10:19:17;21.90;59.80
45843;DHT22;31563;51.744;8.252;2023-10-31T10:21:47;21.90;59.50
45843;DHT22;31563;51.744;8.252;2023-10-31T10:24:18;21.90;59.40
45843;DHT22;31563;51.744;8.252;2023-10-31T10:26:46;21.90;59.90
45843;DHT22;31563;51.744;8.252;2023-10-31T10:29:14;21.90;59.50
45843;DHT22;31563;51.744;8.252;2023-10-31T10:31:43;21.90;59.60
45843;DHT22;31563;51.744;8.252;2023-10-31T10:34:14;21.80;59.70
45843;DHT22;31563;51.744;8.252;2023-10-31T10:36:46;22.10;59.20
45843;DHT22;31563;51.744;8.252;2023-10-31T10:39:18;22.50;58.80
45843;DHT22;31563;51.744;8.252;2023-10-31T10:41:52;22.90;57.90
45843;DHT22;31563;51.744;8.252;2023-10-31T10:44:28;22.90;56.90
45843;DHT22;31563;51.744;8.252;2023-10-31T10:47:01;22.90;57.40
45843;DHT22;31563;51.744;8.252;2023-10-31T10:49:33;22.80;57.70
45843;DHT22;31563;51.744;8.252;2023-10-31T10:52:17;22.80;57.80
45843;DHT22;31563;51.744;8.252;2023-10-31T10:54:52;22.90;57.70
45843;DHT22;31563;51.744;8.252;2023-10-31T10:57:26;23.00;57.40
45843;DHT22;31563;51.744;8.252;2023-10-31T11:00:03;22.90;57.20
45843;DHT22;31563;51.744;8.252;2023-10-31T11:02:32;22.80;57.40
45843;DHT22;31563;51.744;8.252;2023-10-31T11:05:02;22.70;57.70
45843;DHT22;31563;51.744;8.252;2023-10-31T11:07:34;22.70;58.10
45843;DHT22;31563;51.744;8.252;2023-10-31T11:10:04;22.90;57.40
45843;DHT22;31563;51.744;8.252;2023-10-31T11:12:33;23.10;56.90
45843;DHT22;31563;51.744;8.252;2023-10-31T11:15:02;23.00;56.90
45843;DHT22;31563;51.744;8.252;2023-10-31T11:17:31;22.90;57.00
45843;DHT22;31563;51.744;8.252;2023-10-31T11:20:01;22.90;57.50
45843;DHT22;31563;51.744;8.252;2023-10-31T11:22:37;22.80;57.10
45843;DHT22;31563;51.744;8.252;2023-10-31T11:25:09;22.60;57.70
45843;DHT22;31563;51.744;8.252;2023-10-31T11:27:50;22.50;58.10
45843;DHT22;31563;51.744;8.252;2023-10-31T11:30:22;22.50;57.90
45843;DHT22;31563;51.744;8.252;2023-10-31T11:32:54;22.60;58.00
45843;DHT22;31563;51.744;8.252;2023-10-31T11:35:23;22.50;58.10
45843;DHT22;31563;51.744;8.252;2023-10-31T11:38:01;22.50;58.50
45843;DHT22;31563;51.744;8.252;2023-10-31T11:40:32;22.50;58.80
45843;DHT22;31563;51.744;8.252;2023-10-31T11:43:02;22.40;58.50
45843;DHT22;31563;51.744;8.252;2023-10-31T11:45:33;22.30;58.90
45843;DHT22;31563;51.744;8.252;2023-10-31T11:48:02;22.20;59.00
45843;DHT22;31563;51.744;8.252;2023-10-31T11:50:31;22.10;59.90
45843;DHT22;31563;51.744;8.252;2023-10-31T11:53:04;22.00;60.00
45843;DHT22;31563;51.744;8.252;2023-10-31T11:55:36;22.10;60.50
45843;DHT22;31563;51.744;8.252;2023-10-31T11:58:18;22.30;59.90
45843;DHT22;31563;51.744;8.252;2023-10-31T12:00:47;22.50;59.00
45843;DHT22;31563;51.744;8.252;2023-10-31T12:03:16;22.60;58.60
45843;DHT22;31563;51.744;8.252;2023-10-31T12:05:52;22.60;58.30
45843;DHT22;31563;51.744;8.252;2023-10-31T12:08:27;22.50;55.80
45843;DHT22;31563;51.744;8.252;2023-10-31T12:11:08;22.30;57.60
45843;DHT22;31563;51.744;8.252;2023-10-31T12:13:38;22.30;57.40
45843;DHT22;31563;51.744;8.252;2023-10-31T12:16:06;22.30;57.60
45843;DHT22;31563;51.744;8.252;2023-10-31T12:18:36;22.40;57.30
45843;DHT22;31563;51.744;8.252;2023-10-31T12:21:06;22.50;57.20
45843;DHT22;31563;51.744;8.252;2023-10-31T12:23:35;22.50;56.90
45843;DHT22;31563;51.744;8.252;2023-10-31T12:26:03;22.50;56.70
45843;DHT22;31563;51.744;8.252;2023-10-31T12:28:32;22.60;56.70
45843;DHT22;31563;51.744;8.252;2023-10-31T12:31:02;22.50;56.60
45843;DHT22;31563;51.744;8.252;2023-10-31T12:33:30;22.50;57.00
45843;DHT22;31563;51.744;8.252;2023-10-31T12:35:59;22.40;57.00
45843;DHT22;31563;51.744;8.252;2023-10-31T12:38:28;22.30;57.50
45843;DHT22;31563;51.744;8.252;2023-10-31T12:40:57;22.20;57.50
45843;DHT22;31563;51.744;8.252;2023-10-31T12:43:26;22.20;57.40
45843;DHT22;31563;51.744;8.252;2023-10-31T12:45:55;22.30;57.70
45843;DHT22;31563;51.744;8.252;2023-10-31T12:48:24;22.30;57.40
45843;DHT22;31563;51.744;8.252;2023-10-31T12:51:06;22.20;57.60
45843;DHT22;31563;51.744;8.252;2023-10-31T12:53:35;22.20;57.60
45843;DHT22;31563;51.744;8.252;2023-10-31T12:56:04;22.20;57.80
45843;DHT22;31563;51.744;8.252;2023-10-31T12:58:32;22.30;57.50
45843;DHT22;31563;51.744;8.252;2023-10-31T13:01:10;22.30;57.60
45843;DHT22;31563;51.744;8.252;2023-10-31T13:03:48;22.30;57.40
45843;DHT22;31563;51.744;8.252;2023-10-31T13:06:18;22.40;57.40
45843;DHT22;31563;51.744;8.252;2023-10-31T13:08:46;22.40;57.10
45843;DHT22;31563;51.744;8.252;2023-10-31T13:11:14;22.50;56.90
45843;DHT22;31563;51.744;8.252;2023-10-31T13:13:42;22.90;56.30
45843;DHT22;31563;51.744;8.252;2023-10-31T13:16:11;23.80;55.60
45843;DHT22;31563;51.744;8.252;2023-10-31T13:18:40;24.60;52.90
45843;DHT22;31563;51.744;8.252;2023-10-31T13:21:08;25.30;51.40
45843;DHT22;31563;51.744;8.252;2023-10-31T13:23:37;25.70;50.90
45843;DHT22;31563;51.744;8.252;2023-10-31T13:26:05;26.20;50.10
45843;DHT22;31563;51.744;8.252;2023-10-31T13:28:33;26.50;49.60
45843;DHT22;31563;51.744;8.252;2023-10-31T13:31:02;26.20;49.50
45843;DHT22;31563;51.744;8.252;2023-10-31T13:33:32;26.00;49.60
45843;DHT22;31563;51.744;8.252;2023-10-31T13:36:00;26.40;50.00
45843;DHT22;31563;51.744;8.252;2023-10-31T13:38:28;27.20;49.10
45843;DHT22;31563;51.744;8.252;2023-10-31T13:40:56;28.70;47.20
45843;DHT22;31563;51.744;8.252;2023-10-31T13:43:24;30.20;44.70
45843;DHT22;31563;51.744;8.252;2023-10-31T13:45:52;31.30;42.60
45843;DHT22;31563;51.744;8.252;2023-10-31T13:48:20;32.00;41.50
45843;DHT22;31563;51.744;8.252;2023-10-31T13:50:49;32.10;38.10
45843;DHT22;31563;51.744;8.252;2023-10-31T13:53:17;30.50;37.50
45843;DHT22;31563;51.744;8.252;2023-10-31T13:55:45;29.10;40.00
45843;DHT22;31563;51.744;8.252;2023-10-31T13:58:13;28.90;40.30
45843;DHT22;31563;51.744;8.252;2023-10-31T14:00:43;28.70;38.80
45843;DHT22;31563;51.744;8.252;2023-10-31T14:03:11;27.10;41.20
45843;DHT22;31563;51.744;8.252;2023-10-31T14:05:39;25.80;43.20
45843;DHT22;31563;51.744;8.252;2023-10-31T14:08:10;25.00;44.50
45843;DHT22;31563;51.744;8.252;2023-10-31T14:10:38;24.50;45.80
45843;DHT22;31563;51.744;8.252;2023-10-31T14:13:06;23.90;46.40
45843;DHT22;31563;51.744;8.252;2023-10-31T14:15:34;23.80;47.60
45843;DHT22;31563;51.744;8.252;2023-10-31T14:18:02;24.00;47.50
45843;DHT22;31563;51.744;8.252;2023-10-31T14:20:30;24.80;47.40
45843;DHT22;31563;51.744;8.252;2023-10-31T14:22:58;26.60;44.10
45843;DHT22;31563;51.744;8.252;2023-10-31T14:25:29;27.10;43.60
45843;DHT22;31563;51.744;8.252;2023-10-31T14:27:57;27.30;42.80
45843;DHT22;31563;51.744;8.252;2023-10-31T14:30:24;26.90;43.20
45843;DHT22;31563;51.744;8.252;2023-10-31T14:32:53;26.30;44.30
45843;DHT22;31563;51.744;8.252;2023-10-31T14:35:21;26.10;45.00
45843;DHT22;31563;51.744;8.252;2023-10-31T14:37:49;25.80;45.30
45843;DHT22;31563;51.744;8.252;2023-10-31T14:40:17;25.70;45.90
45843;DHT22;31563;51.744;8.252;2023-10-31T14:42:46;25.60;46.20
45843;DHT22;31563;51.744;8.252;2023-10-31T14:45:15;25.40;46.50
45843;DHT22;31563;51.744;8.252;2023-10-31T14:47:43;25.20;46.90
45843;DHT22;31563;51.744;8.252;2023-10-31T14:50:11;25.10;47.40
45843;DHT22;31563;51.744;8.252;2023-10-31T14:52:39;24.90;48.40
45843;DHT22;31563;51.744;8.252;2023-10-31T14:55:08;24.70;48.30
45843;DHT22;31563;51.744;8.252;2023-10-31T14:57:36;24.50;48.90
45843;DHT22;31563;51.744;8.252;2023-10-31T15:00:07;24.30;49.40
45843;DHT22;31563;51.744;8.252;2023-10-31T15:02:38;24.20;49.70
45843;DHT22;31563;51.744;8.252;2023-10-31T15:05:07;24.10;50.50
45843;DHT22;31563;51.744;8.252;2023-10-31T15:07:35;24.00;50.90
45843;DHT22;31563;51.744;8.252;2023-10-31T15:10:05;24.00;51.20
45843;DHT22;31563;51.744;8.252;2023-10-31T15:12:33;23.90;51.60
45843;DHT22;31563;51.744;8.252;2023-10-31T15:15:01;23.80;52.10
45843;DHT22;31563;51.744;8.252;2023-10-31T15:17:30;23.70;52.40
45843;DHT22;31563;51.744;8.252;2023-10-31T15:19:58;23.70;53.10
45843;DHT22;31563;51.744;8.252;2023-10-31T15:22:26;23.70;53.60
45843;DHT22;31563;51.744;8.252;2023-10-31T15:24:54;23.60;54.20
45843;DHT22;31563;51.744;8.252;2023-10-31T15:27:22;23.60;54.30
45843;DHT22;31563;51.744;8.252;2023-10-31T15:29:50;23.50;54.30
45843;DHT22;31563;51.744;8.252;2023-10-31T15:32:18;23.40;54.40
45843;DHT22;31563;51.744;8.252;2023-10-31T15:34:47;23.30;54.00
45843;DHT22;31563;51.744;8.252;2023-10-31T15:37:15;23.10;55.40
45843;DHT22;31563;51.744;8.252;2023-10-31T15:39:43;23.00;55.00
45843;DHT22;31563;51.744;8.252;2023-10-31T15:42:15;22.90;55.20